Estació municipal de Cànoves i Samalús (Vallès Oriental, P.N.del Montseny)

Consulta les dades en temps real de l'estació municipal de Cànoves i Samalús





Hora UTC 20:05
Temperatura 13.1 ºC
Humitat 90.8 %
Pressió 1012.2 hPa
Pluja 0.1 mm
Velocitat vent 2.5 km/h
Direcció vent NNW
Radiació solar 0.1 W/m²

Webcam

Dades diàries 2026-05-06



Hora UTC (hivern +1h; estiu +2h)
Temperatura (ºC) Humitat (%) Pressió (hPa) Velocitat vent (km/h) Precipitació (mm) Radiació solar (W/m²)
Hora UTC Aire Humitat Pressió Vel. Dir. Vel. Max Dir. Intent. màx 5 min. Rad. Sol.
00:05 9.3 93.0 1009.9 3.1 NNW 3.1 NNW 0.0 0.1
00:10 9.2 93.2 1009.9 5.0 NNW 8.8 NNW 0.0 0.1
00:15 9.1 93.5 1009.8 5.9 NNW 8.8 NW 0.0 0.1
00:20 9.2 94.1 1009.8 6.3 NNW 9.5 NNW 0.0 0.1
00:25 9.0 93.9 1009.7 4.6 NNW 8.8 N 0.0 0.1
00:30 9.1 94.5 1009.7 5.0 NNW 8.1 N 0.0 0.1
00:35 9.1 94.6 1009.7 5.3 N 8.8 NNE 0.0 0.1
00:40 9.0 94.3 1009.7 4.2 NNW 6.7 N 0.0 0.1
00:45 9.2 94.7 1009.7 4.9 NNW 8.1 N 0.0 0.1
00:50 8.9 94.3 1009.7 5.0 NNW 7.1 NNW 0.0 0.1
00:55 8.8 94.3 1009.7 3.9 NNW 6.0 NNW 0.0 0.1
01:00 8.6 94.4 1009.7 3.8 NNW 4.9 NNW 0.0 0.1
01:05 8.7 94.9 1009.6 5.1 NNW 6.7 NNW 0.0 0.1
01:10 8.7 94.9 1009.6 4.6 NNW 7.8 NNW 0.0 0.1
01:15 8.5 94.8 1009.6 4.0 NNW 5.6 N 0.0 0.1
01:20 8.3 94.6 1009.5 3.6 NNW 5.6 NNW 0.0 0.1
01:25 8.3 95.1 1009.6 4.8 NNW 7.8 NW 0.0 0.1
01:30 8.5 95.5 1009.5 6.1 NNW 8.8 NNW 0.0 0.1
01:35 8.5 95.6 1009.6 7.4 NNW 12.0 NNW 0.0 0.1
01:40 8.6 95.6 1009.5 5.9 NNW 8.5 N 0.0 0.1
01:45 8.6 95.3 1009.5 4.6 NNW 6.7 N 0.0 0.1
01:50 8.5 95.4 1009.5 4.3 NNW 6.0 NNW 0.0 0.1
01:55 8.4 95.3 1009.4 4.5 NNW 6.4 NNW 0.0 0.1
02:00 8.3 95.5 1009.4 4.9 NNW 6.7 NNW 0.0 0.1
02:05 8.3 95.5 1009.5 0.9 N 4.6 NNE 0.0 0.1
02:10 8.1 95.4 1009.4 4.4 N 8.5 NNW 0.0 0.1
02:15 8.1 95.6 1009.5 2.7 N 6.4 N 0.0 0.1
02:20 8.0 95.5 1009.6 2.4 NNW 4.6 N 0.0 0.1
02:25 7.9 95.6 1009.7 4.7 NW 7.4 NW 0.0 0.1
02:30 7.9 95.7 1009.7 4.7 NNW 7.8 NNW 0.0 0.1
02:35 8.0 96.1 1009.7 4.0 N 7.1 N 0.0 0.1
02:40 8.0 95.8 1009.7 2.4 NNW 3.9 NW 0.0 0.1
02:45 7.8 95.7 1009.8 3.5 NNW 6.4 NW 0.0 0.1
02:50 7.8 96.0 1009.8 5.1 NNW 6.7 NW 0.0 0.1
02:55 7.9 96.2 1009.8 5.2 NW 7.8 NW 0.0 0.1
03:00 8.0 96.3 1009.8 4.5 NNW 5.6 NNW 0.0 0.1
03:05 8.0 96.1 1009.8 1.5 NNW 4.9 NNW 0.0 0.1
03:10 7.7 95.7 1009.8 0.3 NNE 2.1 NNE 0.0 0.1
03:15 7.4 95.6 1009.8 2.6 NNW 3.9 NW 0.0 0.1
03:20 7.3 95.9 1009.8 2.9 NNW 4.6 NW 0.0 0.1
03:25 7.3 96.1 1009.8 4.5 NW 6.0 NNW 0.0 0.1
03:30 7.5 96.5 1009.8 5.0 NNW 7.1 NNW 0.0 0.1
03:35 7.5 96.5 1009.8 3.8 NNW 5.3 NNW 0.0 0.1
03:40 7.5 96.6 1009.8 4.4 NW 6.0 NW 0.0 0.1
03:45 7.6 96.7 1009.8 5.2 NNW 7.1 NNW 0.0 0.1
03:50 7.6 96.6 1009.8 5.6 NNW 6.7 NNW 0.0 0.1
03:55 7.6 96.6 1009.8 5.0 NNW 6.4 NNW 0.0 0.1
04:00 7.6 96.7 1009.8 5.6 NNW 8.5 NNW 0.0 0.1
04:05 7.7 96.9 1009.8 6.1 NNW 9.5 NNW 0.0 0.1
04:10 7.8 97.0 1009.8 5.6 NNW 8.1 N 0.0 0.1
04:15 7.9 96.8 1009.8 5.5 NNW 9.5 NNW 0.0 0.1
04:20 7.8 96.7 1009.9 5.8 NNW 8.8 NNW 0.0 0.3
04:25 7.7 96.6 1009.9 4.8 NNW 7.1 NNW 0.0 0.8
04:30 7.6 96.7 1010.0 4.8 NNW 7.8 NNW 0.0 1.6
04:35 7.7 97.1 1010.0 5.6 NNW 7.4 NNW 0.0 2.6
04:40 7.9 97.2 1010.0 5.9 NNW 8.1 NNW 0.0 3.1
04:45 8.1 97.5 1010.0 6.7 NNW 9.9 NNW 0.0 3.3
04:50 8.3 97.4 1010.1 5.4 NNW 10.2 N 0.0 4.1
04:55 8.5 97.5 1010.1 5.0 NNW 8.1 NW 0.0 5.2
05:00 8.7 97.4 1010.2 4.2 NW 7.8 NNW 0.0 7.3
05:05 8.8 97.2 1010.3 3.0 NW 6.7 NNW 0.0 9.0
05:10 8.8 97.1 1010.4 3.5 NNW 7.8 WNW 0.0 13.1
05:15 9.0 97.0 1010.4 5.2 N 8.8 N 0.0 16.4
05:20 9.0 96.8 1010.5 4.3 NNW 7.1 NNW 0.0 18.8
05:25 9.1 96.5 1010.5 4.9 NNW 8.5 NW 0.0 22.9
05:30 9.1 96.0 1010.5 4.8 NNW 8.8 NW 0.0 32.0
05:35 9.2 95.6 1010.5 3.5 NNW 8.8 NNW 0.0 31.2
05:40 9.2 95.5 1010.5 2.5 NW 6.7 NW 0.0 82.1
05:45 9.4 95.8 1010.6 3.7 NNW 7.1 NNW 0.0 144.6
05:50 9.7 95.4 1010.6 5.3 NNW 8.8 N 0.0 161.4
05:55 10.0 94.3 1010.6 3.2 N 7.1 NNW 0.0 179.5
06:00 10.2 92.9 1010.7 4.7 NNW 10.2 NW 0.0 193.4
06:05 10.5 91.6 1010.7 3.8 N 6.7 N 0.0 205.7
06:10 11.0 88.7 1010.7 4.0 N 8.1 N 0.0 219.6
06:15 11.4 87.5 1010.7 4.2 N 8.5 NNW 0.0 233.9
06:20 11.9 87.3 1010.7 2.0 NNW 4.9 WNW 0.0 248.3
06:25 12.4 86.4 1010.7 1.1 E 3.2 NNW 0.0 262.9
06:30 12.7 85.7 1010.6 2.2 NE 4.6 NE 0.0 278.2
06:35 12.8 84.3 1010.6 1.6 N 4.6 SSW 0.0 287.4
06:40 12.8 81.0 1010.6 4.6 WSW 8.8 WSW 0.0 96.0
06:45 13.0 78.5 1010.7 1.9 WSW 6.0 SSW 0.0 89.4
06:50 13.4 76.7 1010.7 5.1 WSW 9.2 WSW 0.0 279.9
06:55 13.6 75.9 1010.8 4.7 WSW 8.8 WSW 0.0 355.2
07:00 14.0 76.8 1010.8 4.7 SSE 9.5 SE 0.0 370.9
07:05 13.8 79.7 1010.8 4.8 SE 7.4 ESE 0.0 386.9
07:10 13.6 79.1 1010.7 3.8 E 7.4 ESE 0.0 402.3
07:15 13.8 78.8 1010.7 4.9 SE 10.2 SE 0.0 418.4
07:20 13.8 73.1 1010.8 5.5 SSW 9.9 S 0.0 434.9
07:25 14.1 73.8 1010.8 5.8 SSE 12.4 ESE 0.0 450.3
07:30 14.3 73.7 1010.8 7.2 SE 11.3 SE 0.0 464.9
07:35 14.3 71.8 1010.9 7.8 SSE 13.1 SE 0.0 479.0
07:40 14.4 72.7 1011.0 8.2 SSE 15.2 SSE 0.0 494.4
07:45 14.1 72.3 1011.1 5.9 SSE 13.1 S 0.0 508.8
07:50 14.4 74.7 1011.1 5.9 S 12.4 SSE 0.0 523.0
07:55 14.4 72.6 1011.2 4.9 SSE 10.2 SE 0.0 536.7
08:00 14.5 71.2 1011.2 6.8 S 12.0 SE 0.0 549.9
08:05 14.5 71.6 1011.2 5.5 S 10.6 SSE 0.0 562.8
08:10 14.7 72.1 1011.2 3.9 SSE 7.4 SW 0.0 577.1
08:15 14.8 70.5 1011.2 6.7 SSW 10.9 WSW 0.0 590.9
08:20 14.7 70.5 1011.3 6.9 SSE 10.6 S 0.0 602.8
08:25 14.8 70.9 1011.3 7.6 SE 14.8 SE 0.0 618.4
08:30 15.1 69.2 1011.3 2.4 SSW 9.5 SSW 0.0 630.9
08:35 15.6 68.5 1011.3 3.7 SSW 11.3 S 0.0 645.5
08:40 15.5 65.3 1011.3 6.4 ESE 12.4 S 0.0 658.6
08:45 15.6 66.3 1011.3 6.6 SE 10.6 ESE 0.0 671.7
08:50 15.6 66.0 1011.4 6.1 SE 14.1 SE 0.0 683.5
08:55 15.6 64.9 1011.4 6.0 SSE 12.0 S 0.0 692.3
09:00 15.6 64.7 1011.4 4.3 S 12.0 SW 0.0 653.3
09:05 15.8 65.3 1011.4 3.9 SSW 10.2 S 0.0 715.9
09:10 16.0 64.2 1011.4 7.0 SE 11.3 ESE 0.0 725.3
09:15 16.1 65.4 1011.4 9.3 SE 15.9 ESE 0.0 739.0
09:20 16.2 64.1 1011.5 7.5 SW 13.8 SSW 0.0 752.6
09:25 16.2 63.1 1011.5 6.1 S 15.5 S 0.0 782.0
09:30 16.2 62.8 1011.5 5.1 SSE 13.8 ESE 0.0 512.2
09:35 16.4 61.7 1011.5 4.9 S 12.0 SSW 0.0 786.6
09:40 16.5 60.0 1011.5 3.0 E 9.5 E 0.0 792.7
09:45 16.9 59.1 1011.5 4.3 WSW 10.2 SSW 0.0 799.2
09:50 17.1 59.9 1011.4 4.2 E 8.1 SE 0.0 811.0
09:55 17.4 58.5 1011.4 7.7 S 14.1 SSW 0.0 821.0
10:00 17.1 57.5 1011.4 6.0 SSE 9.9 S 0.0 829.0
10:05 17.2 56.4 1011.3 3.6 ESE 13.1 SSW 0.0 860.0
10:10 17.5 56.4 1011.2 4.0 SE 9.9 S 0.0 845.0
10:15 17.9 58.3 1011.2 5.7 ESE 14.5 S 0.0 848.0
10:20 18.0 57.8 1011.1 7.6 SSE 13.8 SSE 0.0 855.0
10:25 17.9 57.1 1011.1 10.8 SE 19.8 ESE 0.0 861.0
10:30 17.7 56.9 1011.1 9.5 SE 17.6 SE 0.0 868.0
10:35 17.5 56.4 1011.1 10.9 SSE 19.8 SSE 0.0 875.0
10:40 17.5 56.8 1011.0 8.7 SSW 17.6 SSW 0.0 884.0
10:45 17.8 56.0 1011.0 5.9 SE 13.8 SSE 0.0 893.0
10:50 18.2 55.7 1010.9 11.7 SSE 19.8 SE 0.0 908.0
10:55 18.1 56.0 1011.0 8.2 S 16.6 SSE 0.0 909.0
11:00 18.1 54.2 1010.9 9.8 S 19.1 SSE 0.0 915.0
11:05 18.1 53.7 1010.9 7.3 S 16.6 SW 0.0 917.0
11:10 18.4 53.6 1010.9 6.3 SE 12.7 SSE 0.0 925.0
11:15 18.7 52.9 1010.9 6.7 WSW 18.0 SW 0.1 942.0
11:20 18.6 50.9 1010.8 7.5 SW 13.8 WSW 0.0 940.0
11:25 18.6 52.6 1010.7 14.0 SSE 21.2 SSE 0.0 940.0
11:30 18.6 52.7 1010.7 9.7 S 18.0 SE 0.0 934.0
11:35 18.6 55.2 1010.6 10.3 SE 18.4 SSE 0.0 975.0
11:40 18.7 53.2 1010.7 12.6 S 24.0 SSE 0.0 930.0
11:45 18.7 51.3 1010.7 8.2 SW 18.7 S 0.0 1024.0
11:50 18.8 51.2 1010.6 5.2 SW 14.1 ESE 0.0 795.3
11:55 18.9 54.5 1010.6 10.2 SE 18.4 E 0.0 997.0
12:00 19.0 52.9 1010.6 10.8 S 21.2 S 0.0 770.0
12:05 19.0 53.2 1010.6 9.1 SSE 20.5 SE 0.0 960.0
12:10 19.0 51.6 1010.6 11.6 SSE 22.2 SSW 0.0 862.0
12:15 18.9 53.4 1010.6 6.6 S 16.9 S 0.0 631.5
12:20 19.1 53.6 1010.6 9.0 S 19.1 SSW 0.0 947.0
12:25 19.1 54.8 1010.4 14.8 SE 27.5 SE 0.0 633.5
12:30 18.3 55.6 1010.3 14.7 SE 24.0 ESE 0.0 553.4
12:35 18.9 57.0 1010.4 10.4 SE 21.9 SSE 0.0 985.0
12:40 19.2 55.9 1010.5 14.3 SSE 24.7 SE 0.0 978.0
12:45 18.8 55.5 1010.5 14.5 SSE 24.7 SE 0.0 774.5
12:50 18.8 56.9 1010.5 12.7 SE 20.8 SE 0.0 936.0
12:55 18.8 57.8 1010.5 11.4 SSE 22.6 SE 0.0 939.0
13:00 18.7 57.7 1010.5 13.1 SSE 26.1 SSE 0.0 659.2
13:05 18.0 58.5 1010.6 12.5 SSE 21.2 SSW 0.0 957.0
13:10 18.3 58.8 1010.7 10.9 SSE 20.8 SSE 0.0 944.0
13:15 18.2 57.2 1010.6 11.5 SSE 19.1 S 0.0 799.1
13:20 18.2 58.0 1010.6 11.4 SSE 19.4 SSW 0.0 857.0
13:25 18.4 57.9 1010.6 9.9 SSE 21.9 SSE 0.0 926.0
13:30 18.4 57.9 1010.6 9.5 S 21.9 SSW 0.0 808.0
13:35 18.5 57.4 1010.6 8.8 SSW 19.1 S 0.0 658.1
13:40 18.3 58.2 1010.5 6.3 SE 15.9 SSE 0.0 869.0
13:45 18.6 57.3 1010.4 6.8 S 16.2 SSW 0.0 819.0
13:50 18.6 55.9 1010.4 7.2 SSE 19.1 S 0.0 820.0
13:55 18.6 58.7 1010.3 6.6 SE 13.4 SE 0.0 803.0
14:00 18.6 59.4 1010.2 11.7 SE 22.9 SE 0.0 909.0
14:05 18.7 58.1 1010.2 13.4 ESE 21.5 SE 0.0 906.0
14:10 18.6 57.0 1010.1 6.5 ESE 17.6 SE 0.0 865.0
14:15 18.6 57.4 1010.1 13.8 SSE 22.2 SE 0.0 833.0
14:20 18.5 57.9 1010.1 12.1 SE 19.1 ESE 0.0 742.7
14:25 18.5 58.0 1010.0 11.4 SSE 24.3 SSE 0.0 615.3
14:30 18.4 57.3 1010.0 12.9 SE 21.5 ESE 0.0 739.4
14:35 18.3 57.9 1010.0 9.5 SE 19.1 SE 0.0 725.7
14:40 18.3 57.9 1010.0 12.7 SE 25.8 SE 0.0 722.5
14:45 18.3 56.5 1009.9 12.6 SSE 21.9 SSE 0.0 676.4
14:50 18.1 57.7 1009.9 11.6 SSE 21.5 ESE 0.0 655.5
14:55 18.1 57.5 1009.9 13.1 SE 21.5 SSE 0.0 644.8
15:00 18.0 58.2 1009.9 12.8 SE 20.1 SSE 0.0 633.6
15:05 17.9 57.7 1009.9 11.5 SSE 19.8 SE 0.0 617.0
15:10 17.9 58.8 1009.9 9.8 SSE 18.7 SSE 0.0 599.1
15:15 17.9 56.5 1010.0 11.1 SSE 19.4 SE 0.0 585.1
15:20 17.9 57.4 1009.9 11.8 SE 21.5 ESE 0.0 572.1
15:25 17.9 56.1 1009.9 11.5 SSE 18.0 SSE 0.0 558.4
15:30 17.5 56.9 1009.9 9.6 SE 19.4 SE 0.0 542.8
15:35 17.7 57.3 1009.9 12.2 SE 19.8 E 0.0 528.6
15:40 17.6 56.8 1010.0 9.9 SSE 20.1 S 0.0 515.8
15:45 17.7 56.9 1010.0 9.2 SSE 16.2 S 0.0 497.6
15:50 17.7 57.0 1009.9 8.7 SSE 21.5 SE 0.0 484.3
15:55 17.7 56.1 1010.0 9.9 SSE 20.5 SE 0.0 461.7
16:00 17.6 56.0 1010.0 8.7 SE 14.8 ESE 0.0 452.5
16:05 17.4 56.7 1010.0 12.2 SE 18.4 SE 0.0 439.4
16:10 17.2 58.2 1010.0 11.5 SE 17.3 ESE 0.0 425.3
16:15 17.2 59.1 1010.0 7.6 SE 13.1 S 0.0 413.7
16:20 17.3 59.2 1010.1 5.1 SE 16.6 ESE 0.0 445.8
16:25 17.4 59.1 1010.1 10.3 SE 16.2 ESE 0.0 440.5
16:30 17.2 61.5 1010.1 9.9 SE 15.9 SE 0.0 393.5
16:35 17.2 62.5 1010.1 8.3 SE 15.5 SSE 0.0 363.4
16:40 17.1 64.6 1010.2 6.6 SSE 12.4 SE 0.0 346.9
16:45 17.0 64.8 1010.2 9.9 SSE 18.4 SSE 0.0 344.1
16:50 16.7 65.3 1010.2 7.3 SSE 14.5 S 0.0 317.9
16:55 16.8 65.1 1010.2 6.3 SSE 12.0 S 0.0 298.6
17:00 16.7 65.3 1010.2 8.0 SSE 13.1 SSE 0.0 280.3
17:05 16.6 65.3 1010.3 6.6 SSE 10.9 SSE 0.0 268.2
17:10 16.6 64.9 1010.3 6.8 SSE 11.3 SE 0.0 209.8
17:15 16.5 64.7 1010.3 7.2 SSE 10.9 SSE 0.0 174.5
17:20 16.4 64.7 1010.3 7.6 SSE 13.4 SE 0.0 217.9
17:25 16.3 64.6 1010.3 6.1 SSE 12.4 SSE 0.0 202.9
17:30 16.4 65.2 1010.4 5.9 SSE 9.2 S 0.0 188.4
17:35 16.3 65.2 1010.4 5.9 SSE 9.9 SE 0.0 172.2
17:40 16.2 65.8 1010.4 6.6 SSE 10.9 SSE 0.0 109.3
17:45 16.0 66.6 1010.4 6.3 SSE 11.3 S 0.0 44.5
17:50 15.9 69.8 1010.4 7.0 SSE 14.8 S 0.0 76.2
17:55 16.0 77.3 1010.5 8.8 SE 14.5 SE 0.0 101.9
18:00 15.8 78.9 1010.6 8.9 SE 17.3 SSE 0.0 60.0
18:05 15.6 79.9 1010.7 8.5 SSE 17.3 SSE 0.0 44.9
18:10 15.4 81.0 1010.7 8.9 SSE 15.5 SE 0.0 31.2
18:15 15.1 82.1 1010.7 7.7 SSE 12.7 SSE 0.0 23.7
18:20 14.9 83.1 1010.8 6.2 SSE 10.6 SE 0.0 20.1
18:25 14.8 83.9 1010.8 4.9 SSE 9.9 SE 0.0 18.9
18:30 14.6 84.4 1010.9 5.4 SSE 9.5 S 0.0 14.9
18:35 14.4 84.8 1011.0 4.3 SSE 8.8 SE 0.0 12.9
18:40 14.4 85.1 1011.1 3.2 SSE 7.4 SE 0.0 8.7
18:45 14.3 85.4 1011.2 2.4 S 4.9 SSE 0.0 5.6
18:50 14.3 85.8 1011.2 1.0 SE 3.9 SSE 0.0 3.7
18:55 14.2 85.7 1011.3 0.5 SSE 3.2 S 0.0 2.5
19:00 14.1 85.8 1011.4 0.0 NNE 0.0 S 0.0 1.5
19:05 14.0 86.2 1011.4 0.0 NNE 0.0 SSW 0.0 0.8
19:10 14.0 86.7 1011.4 0.3 NNE 2.8 NE 0.0 0.4
19:15 13.9 87.0 1011.4 1.2 ESE 4.2 E 0.0 0.2
19:20 13.9 87.5 1011.5 1.5 ENE 4.6 NE 0.0 0.1
19:25 13.7 87.4 1011.5 0.0 N 1.8 N 0.0 0.1
19:30 13.6 87.7 1011.5 2.9 NNW 4.6 NW 0.0 0.1
19:35 13.5 88.3 1011.7 2.2 NW 3.9 NW 0.0 0.1
19:40 13.3 88.5 1011.7 0.0 NNE 0.0 NNW 0.0 0.1
19:45 13.1 88.4 1011.8 0.2 NNE 1.8 NNE 0.0 0.1
19:50 13.1 89.3 1011.9 2.3 N 4.2 N 0.0 0.1
19:55 13.1 89.6 1011.9 3.4 NNW 4.9 NW 0.0 0.1
20:00 13.0 90.2 1012.1 4.0 NW 5.6 NW 0.0 0.1
20:05 13.1 90.8 1012.2 2.5 NNW 3.9 NNW 0.0 0.1
Màxima 19.2 97.5 1012.2 14.8 SE 27.5 SE 0.1 1024.0
Mínima 7.3 50.9 1009.4
Total 0.1